KHST

Homestead ARB Airport

Homestead, Florida, USA
METAR KHST 162237Z AUTO 16003KT 10SM -RA BKN042 OVC060 23/18 A3007 RMK AO2 RAB37 SLP186 FZRANO VISNO RWY24 $
Observed Flight Rules
Dec-16 @ 22:37 UTC (21 minutes ago) Visual Flight Rules
Wind Visibility Clouds Conditions
160° at 3 knots 10 miles
  • Broken at 4,200' AGL
  • Overcast at 6,000' AGL
  • Light Rain
Temperatures Readings
Current 23°C / 73°F
Dewpoint 18°C / 64°F
Humidity 74%
Altimeter 30.07" Hg
Pressure 1018.6 hPa
Elevation 2
METAR KHST 162237Z AUTO 16003KT 10SM -RA BKN042 OVC060 23/18 A3007 RMK AO2 RAB37 SLP186 FZRANO VISNO RWY24 $
Observed Flight Rules
Dec-16 @ 22:37 UTC
(21 minutes ago)
VFR
Wind Visibility
160° at 3 knots 10 miles
Clouds
  • Broken at 4,200' AGL
  • Overcast at 6,000' AGL
Conditions
  • Light Rain
Temperature Dewpoint
23°C / 73°F 18°C / 64°F
Humidity Altimeter Pressure
74% 30.07" Hg 1018.6 hPa